Time;durP1;ratioP1;P1;durP2;ratioP2;P2;SDS_P1;SDS_P2;PMS_P1;PMS_P2;Temp;Humidity;BMP_temperature;BMP_pressure;BME280_temperature;BME280_humidity;BME280_pressure;Samples;Min_cycle;Max_cycle;Signal;HPM_P1;HPM_P2
2023/12/13 00:31:05;;;;;;;;;;;;;;;10.79;80.03;98392.00;1088164;54;1006;-81
2023/12/13 00:32:10;;;;;;;;;;;;;;;10.86;79.41;98397.44;1088310;47;994;-81
2023/12/13 00:33:28;;;;;;;;;;;;;;;10.82;79.30;98391.59;1088337;47;1008;-82
2023/12/13 00:34:50;;;;;;;;;;;;;;;10.81;79.14;98394.47;1088378;47;998;-81
2023/12/13 00:35:57;;;;;;;;;;;;;;;10.83;78.95;98389.78;1088225;47;1243;-81
2023/12/13 00:36:58;;;;;;;;;;;;;;;10.80;79.38;98398.16;1088247;54;1163;-81
2023/12/13 00:38:03;;;;;;;;;;;;;;;10.72;79.42;98396.44;1088309;47;1292;-81
2023/12/13 00:39:13;;;;;;;;;;;;;;;10.74;79.11;98392.56;1088399;47;1445;-80
2023/12/13 00:40:21;;;;;;;;;;;;;;;10.75;79.35;98391.53;1088313;47;1848;-80
2023/12/13 00:41:31;;;;;;;;;;;;;;;10.71;79.26;98390.25;1088393;54;933;-80
2023/12/13 00:42:35;;;;;;;;;;;;;;;10.80;78.94;98390.13;1088110;54;956;-81
2023/12/13 00:43:37;;;;;;;;;;;;;;;10.71;79.15;98390.25;1088332;47;1562;-81
2023/12/13 00:44:44;;;;;;;;;;;;;;;10.71;79.28;98392.91;1088269;47;950;-81
2023/12/13 00:45:59;;;;;;;;;;;;;;;10.70;78.78;98391.25;1088398;47;1430;-80
2023/12/13 00:47:07;;;;;;;;;;;;;;;10.68;79.15;98395.13;1088231;47;1432;-82
2023/12/13 00:48:08;;;;;;;;;;;;;;;10.52;79.42;98386.31;1088283;47;1574;-80
2023/12/13 02:33:04;;;;;;;;;;;;;;;10.05;81.01;98390.94;1088568;54;1914;-82
2023/12/13 02:34:30;;;;;;;;;;;;;;;10.17;80.74;98396.66;1088872;46;931;-83
2023/12/13 02:35:37;;;;;;;;;;;;;;;10.12;80.73;98389.19;1088786;54;957;-82
2023/12/13 02:40:08;;;;;;;;;;;;;;;;;;;;;
2023/12/13 02:41:41;;;;;;;;;;;;;;;10.02;81.00;98375.28;1088528;54;968;-81
2023/12/13 02:42:43;;;;;;;;;;;;;;;10.03;80.79;98384.94;1088592;54;856;-81
2023/12/13 02:43:49;;;;;;;;;;;;;;;10.09;80.74;98386.06;1088431;47;970;-80
2023/12/13 02:45:38;;;;;;;;;;;;;;;10.07;80.64;98378.25;1088602;46;963;-82
2023/12/13 02:47:18;;;;;;;;;;;;;;;10.17;80.33;98377.16;1088559;46;1335;-82
2023/12/13 02:53:40;;;;;;;;;;;;;;;10.30;79.71;98372.81;1088710;47;909;-82
2023/12/13 14:14:30;;;;;;;;;;;;;;;9.49;76.39;98186.69;1088160;54;1162;-80
2023/12/13 14:15:54;;;;;;;;;;;;;;;9.54;76.32;98188.00;1088791;46;910;-80
2023/12/13 14:18:37;;;;;;;;;;;;;;;9.18;78.10;98195.66;1088885;46;858;-82
2023/12/13 14:19:41;;;;;;;;;;;;;;;9.18;78.22;98185.00;1088714;54;914;-81
2023/12/13 14:20:51;;;;;;;;;;;;;;;9.25;78.35;98181.63;1088497;54;1849;-80
2023/12/13 14:21:52;;;;;;;;;;;;;;;9.24;78.52;98186.13;1088725;54;899;-81
2023/12/13 14:24:11;;;;;;;;;;;;;;;9.29;78.67;98182.91;1088561;47;951;-81
2023/12/13 14:27:36;;;;;;;;;;;;;;;9.17;79.54;98201.19;1088665;46;1323;-81
2023/12/13 14:28:38;;;;;;;;;;;;;;;9.21;79.50;98208.66;1088602;54;934;-81
2023/12/13 14:30:14;;;;;;;;;;;;;;;9.18;79.75;98203.66;1088874;46;880;-79
2023/12/13 14:31:35;;;;;;;;;;;;;;;9.16;80.18;98219.00;1088587;47;955;-80
2023/12/13 14:34:12;;;;;;;;;;;;;;;9.13;80.33;98215.88;1088710;46;813;-80
2023/12/13 14:35:17;;;;;;;;;;;;;;;9.10;80.65;98217.06;1088747;46;914;-81
2023/12/13 14:36:33;;;;;;;;;;;;;;;9.10;80.68;98214.41;1088546;47;1315;-83
2023/12/13 14:37:42;;;;;;;;;;;;;;;9.04;81.04;98223.94;1088808;46;964;-83
2023/12/13 14:40:29;;;;;;;;;;;;;;;9.09;80.63;98220.75;1088531;47;878;-79
2023/12/13 14:41:56;;;;;;;;;;;;;;;9.06;81.08;98229.13;1088417;47;971;-82
2023/12/13 14:43:00;;;;;;;;;;;;;;;9.09;81.25;98222.59;1088232;47;1134;-80
2023/12/13 14:44:05;;;;;;;;;;;;;;;9.13;81.01;98227.38;1088248;47;949;-81
2023/12/13 14:45:17;;;;;;;;;;;;;;;9.10;81.47;98229.59;1088823;54;1081;-80
2023/12/13 14:46:18;;;;;;;;;;;;;;;9.01;81.88;98234.13;1088579;54;1302;-80
2023/12/13 14:47:24;;;;;;;;;;;;;;;8.91;82.07;98229.06;1088530;54;1030;-80
2023/12/13 14:48:24;;;;;;;;;;;;;;;8.86;82.26;98234.09;1088504;54;984;-81
2023/12/13 14:49:25;;;;;;;;;;;;;;;8.97;82.01;98239.00;1088496;54;956;-80
2023/12/13 14:50:29;;;;;;;;;;;;;;;8.97;82.06;98231.00;1088590;54;973;-81
2023/12/13 14:51:29;;;;;;;;;;;;;;;9.04;81.87;98234.59;1088506;47;1006;-80
2023/12/13 14:52:33;;;;;;;;;;;;;;;8.96;82.20;98236.53;1088607;54;990;-79
2023/12/13 14:53:34;;;;;;;;;;;;;;;8.76;82.88;98242.34;1088517;47;1001;-80
2023/12/13 14:54:38;;;;;;;;;;;;;;;8.78;83.34;98240.31;1088559;54;954;-78
2023/12/13 14:55:38;;;;;;;;;;;;;;;8.84;82.78;98242.28;1088497;54;954;-80
2023/12/13 14:56:42;;;;;;;;;;;;;;;8.89;83.03;98236.41;1088494;54;1293;-79
2023/12/13 14:57:43;;;;;;;;;;;;;;;8.83;82.79;98235.28;1088506;47;958;-78
2023/12/13 14:58:46;;;;;;;;;;;;;;;8.83;83.18;98243.28;1088475;54;1268;-78
2023/12/13 14:59:47;;;;;;;;;;;;;;;8.73;83.66;98243.53;1088529;54;992;-77
2023/12/13 15:00:50;;;;;;;;;;;;;;;8.77;83.25;98238.66;1088461;47;1857;-78
2023/12/13 15:01:51;;;;;;;;;;;;;;;8.78;83.20;98239.47;1088498;54;977;-78
2023/12/13 15:03:02;;;;;;;;;;;;;;;8.77;83.34;98244.00;1088528;47;1393;-79
2023/12/13 15:04:07;;;;;;;;;;;;;;;8.78;83.26;98243.00;1088673;54;951;-80
2023/12/13 15:05:14;;;;;;;;;;;;;;;8.81;83.39;98236.47;1088595;54;1282;-81
2023/12/13 15:06:14;;;;;;;;;;;;;;;8.73;83.99;98240.00;1088674;47;1551;-79
2023/12/13 15:07:18;;;;;;;;;;;;;;;8.61;84.09;98234.28;1088615;46;1391;-80
2023/12/13 15:08:30;;;;;;;;;;;;;;;8.68;84.05;98240.53;1088632;54;1247;-79
2023/12/13 15:09:33;;;;;;;;;;;;;;;8.76;83.72;98237.00;1088606;54;961;-79
2023/12/13 15:10:39;;;;;;;;;;;;;;;8.82;83.77;98233.63;1088558;54;973;-78
2023/12/13 15:11:42;;;;;;;;;;;;;;;8.82;83.68;98241.59;1088568;54;953;-80
2023/12/13 15:12:45;;;;;;;;;;;;;;;8.81;84.08;98234.63;1088643;54;972;-78
2023/12/13 15:13:54;;;;;;;;;;;;;;;8.84;83.74;98234.28;1088103;47;951;-79
2023/12/13 15:14:57;;;;;;;;;;;;;;;8.92;83.72;98237.88;1087901;54;1240;-78
2023/12/13 15:17:41;;;;;;;;;;;;;;;9.02;83.10;98230.47;1088175;47;991;-78
2023/12/13 15:18:44;;;;;;;;;;;;;;;9.08;82.71;98224.41;1088058;54;1035;-78
2023/12/13 15:19:45;;;;;;;;;;;;;;;9.16;82.42;98231.53;1088072;47;964;-77
2023/12/13 15:23:44;;;;;;;;;;;;;;;9.17;81.44;98227.84;1088110;47;930;-79
2023/12/13 15:24:46;;;;;;;;;;;;;;;9.15;81.18;98230.69;1088194;46;1128;-80
2023/12/13 15:27:05;;;;;;;;;;;;;;;9.27;80.47;98233.75;1088090;47;1438;-78
2023/12/13 15:28:11;;;;;;;;;;;;;;;9.27;80.18;98238.25;1088111;47;1013;-78
2023/12/13 15:29:14;;;;;;;;;;;;;;;9.36;79.45;98237.16;1088000;47;974;-78
2023/12/13 15:30:38;;;;;;;;;;;;;;;9.34;79.51;98228.53;1087927;46;1136;-79
2023/12/13 15:31:55;;;;;;;;;;;;;;;9.24;79.31;98235.97;1088067;54;952;-80
2023/12/13 15:32:56;;;;;;;;;;;;;;;9.19;79.14;98239.16;1088105;47;913;-80
2023/12/13 15:34:07;;;;;;;;;;;;;;;9.14;79.26;98247.72;1087994;47;1017;-79
2023/12/13 15:35:09;;;;;;;;;;;;;;;9.17;79.16;98254.50;1088033;47;974;-78
2023/12/13 16:52:10;;;;;;;;;;;;;;;9.43;77.09;98302.13;990749;54;50726;-82
2023/12/13 16:53:11;;;;;;;;;;;;;;;9.40;76.69;98307.81;1089054;54;887;-82
2023/12/13 16:54:18;;;;;;;;;;;;;;;9.42;76.61;98305.81;1088674;47;959;-82
2023/12/13 16:56:02;;;;;;;;;;;;;;;9.41;76.89;98308.63;1088709;54;1002;-81
2023/12/13 17:05:58;;;;;;;;;;;;;;;9.44;76.19;98306.47;1088633;54;1840;-80
2023/12/13 17:10:37;;;;;;;;;;;;;;;9.46;76.08;98311.59;1088599;54;1156;-82
2023/12/13 17:11:41;;;;;;;;;;;;;;;9.50;76.01;98308.41;1088649;46;894;-81
2023/12/13 17:12:53;;;;;;;;;;;;;;;9.49;75.74;98320.06;1088603;46;906;-83
2023/12/13 17:13:54;;;;;;;;;;;;;;;9.37;76.55;98313.50;1088528;46;969;-84
2023/12/13 17:15:08;;;;;;;;;;;;;;;9.34;76.36;98317.34;1088638;46;885;-81
2023/12/13 17:16:21;;;;;;;;;;;;;;;9.31;76.33;98314.22;1088698;54;961;-84
2023/12/13 17:24:58;;;;;;;;;;;;;;;9.26;76.00;98327.28;1088048;54;1222;-81
2023/12/13 17:26:20;;;;;;;;;;;;;;;9.16;76.49;98328.31;1088442;54;996;-83
2023/12/13 17:30:51;;;;;;;;;;;;;;;8.99;77.03;98337.44;1088468;47;979;-83
2023/12/13 17:31:55;;;;;;;;;;;;;;;8.97;77.44;98340.28;1088438;47;958;-82
2023/12/13 17:33:23;;;;;;;;;;;;;;;8.97;77.45;98337.63;1088415;47;892;-81
2023/12/13 17:50:50;;;;;;;;;;;;;;;8.64;79.59;98376.94;1087967;54;1202;-82
2023/12/13 17:52:07;;;;;;;;;;;;;;;8.64;79.40;98377.78;1088449;54;961;-81
2023/12/13 17:53:31;;;;;;;;;;;;;;;8.60;80.10;98380.97;1088703;46;969;-82
2023/12/13 20:31:43;;;;;;;;;;;;;;;8.92;81.42;98547.88;1087787;54;1131;-83
2023/12/13 20:32:45;;;;;;;;;;;;;;;9.02;80.93;98548.47;1088587;47;1008;-82
2023/12/13 20:33:49;;;;;;;;;;;;;;;9.06;81.19;98546.31;1088755;46;855;-82
2023/12/13 20:34:53;;;;;;;;;;;;;;;9.13;80.74;98546.44;1088658;47;1079;-82
2023/12/13 20:35:54;;;;;;;;;;;;;;;9.17;80.46;98553.94;1088596;54;968;-82
2023/12/13 20:37:03;;;;;;;;;;;;;;;9.17;80.34;98559.25;1088530;46;1180;-82
2023/12/13 20:38:21;;;;;;;;;;;;;;;9.25;80.52;98554.94;1088717;46;976;-81
2023/12/13 20:39:36;;;;;;;;;;;;;;;9.19;80.13;98562.59;1088664;46;935;-83
2023/12/13 20:40:44;;;;;;;;;;;;;;;9.27;80.22;98563.56;1088555;47;965;-84
2023/12/13 20:41:52;;;;;;;;;;;;;;;9.29;79.93;98558.91;1088672;46;930;-82
2023/12/13 20:42:56;;;;;;;;;;;;;;;9.28;80.24;98562.56;1088584;46;995;-84
2023/12/13 20:44:02;;;;;;;;;;;;;;;9.30;79.98;98566.75;1088511;47;961;-83
2023/12/13 20:45:03;;;;;;;;;;;;;;;9.34;79.76;98567.22;1088513;47;982;-83
2023/12/13 20:46:06;;;;;;;;;;;;;;;9.27;79.70;98568.91;1088567;47;994;-84
2023/12/13 20:48:31;;;;;;;;;;;;;;;9.14;79.71;98564.97;1088472;47;983;-85
2023/12/13 20:49:32;;;;;;;;;;;;;;;9.08;79.89;98572.81;1088586;54;1061;-84
2023/12/13 20:50:50;;;;;;;;;;;;;;;9.05;79.94;98576.66;1088497;47;1035;-83
2023/12/13 20:52:24;;;;;;;;;;;;;;;8.98;80.03;98576.50;1088456;47;980;-82
2023/12/13 20:54:06;;;;;;;;;;;;;;;8.92;80.30;98576.34;1088578;47;988;-82
2023/12/13 20:55:10;;;;;;;;;;;;;;;8.93;80.44;98578.00;1088551;46;946;-83
2023/12/13 20:56:11;;;;;;;;;;;;;;;8.94;80.27;98577.00;1088410;54;1078;-82
2023/12/13 20:57:23;;;;;;;;;;;;;;;8.89;80.19;98578.34;1088318;47;1388;-81
2023/12/13 20:58:23;;;;;;;;;;;;;;;8.84;80.61;98582.50;1088152;47;1856;-81
2023/12/13 20:59:24;;;;;;;;;;;;;;;8.79;81.14;98582.19;1088418;54;1034;-81
2023/12/13 22:29:23;;;;;;;;;;;;;;;8.58;85.32;98712.25;1073573;54;2137;-82
2023/12/13 22:30:39;;;;;;;;;;;;;;;8.60;85.42;98712.09;1088557;47;1045;-83
2023/12/13 22:31:46;;;;;;;;;;;;;;;8.60;85.18;98711.25;1088762;54;1026;-83
2023/12/13 22:32:57;;;;;;;;;;;;;;;8.67;85.03;98717.59;1088648;54;873;-84
